createdAt,value
2019-03-11T00:00:52.757Z,81.01
2019-03-11T00:01:52.744Z,78.82
2019-03-11T00:02:52.731Z,78.06
2019-03-11T00:03:52.719Z,79.20
2019-03-11T00:04:52.715Z,78.25
2019-03-11T00:05:52.689Z,80.63
2019-03-11T00:06:52.676Z,80.15
2019-03-11T00:07:52.665Z,79.39
2019-03-11T00:08:52.649Z,78.72
2019-03-11T00:09:52.635Z,77.30
2019-03-11T00:10:52.649Z,79.49
2019-03-11T00:11:52.611Z,78.91
2019-03-11T00:12:52.598Z,78.72
2019-03-11T00:13:52.582Z,76.44
2019-03-11T00:14:52.570Z,77.30
2019-03-11T00:15:52.555Z,77.39
2019-03-11T00:16:52.542Z,80.63
2019-03-11T00:17:52.528Z,82.53
2019-03-11T00:18:52.515Z,79.68
2019-03-11T00:19:52.503Z,79.20
2019-03-11T00:20:52.489Z,78.72
2019-03-11T00:21:52.474Z,81.48
2019-03-11T00:22:52.461Z,79.68
2019-03-11T00:23:52.450Z,78.25
2019-03-11T00:24:52.434Z,78.91
2019-03-11T00:25:52.422Z,80.82
2019-03-11T00:26:52.409Z,80.34
2019-03-11T00:27:52.395Z,79.20
2019-03-11T00:28:52.381Z,79.11
2019-03-11T00:29:52.367Z,78.44
2019-03-11T00:30:52.358Z,79.96
2019-03-11T00:31:52.343Z,78.91
2019-03-11T00:32:52.332Z,78.82
2019-03-11T00:33:52.315Z,77.39
2019-03-11T00:34:52.301Z,76.35
2019-03-11T00:35:52.286Z,77.30
2019-03-11T00:36:52.273Z,80.53
2019-03-11T00:37:52.267Z,78.06
2019-03-11T00:38:52.254Z,77.17
2019-03-11T00:39:52.243Z,78.21
2019-03-11T00:40:52.221Z,79.54
2019-03-11T00:41:52.211Z,79.44
2019-03-11T00:42:52.196Z,81.44
2019-03-11T00:43:52.181Z,78.97
2019-03-11T00:44:52.169Z,80.49
2019-03-11T00:45:52.155Z,82.20
2019-03-11T00:46:52.141Z,80.58
2019-03-11T00:48:01.524Z,80.02
2019-03-11T00:48:52.116Z,78.30
2019-03-11T00:49:52.105Z,77.64
2019-03-11T00:50:52.089Z,80.77
2019-03-11T00:51:52.076Z,83.62
2019-03-11T00:52:52.061Z,81.44
2019-03-11T00:53:52.049Z,78.88
2019-03-11T00:54:52.038Z,78.50
2019-03-11T00:55:52.022Z,77.17
2019-03-11T00:56:52.011Z,79.44
2019-03-11T00:57:51.998Z,77.45
2019-03-11T00:58:51.984Z,77.64
2019-03-11T00:59:51.969Z,77.55
2019-03-11T01:00:51.956Z,76.93
2019-03-11T01:01:51.947Z,77.64
2019-03-11T01:02:51.935Z,79.79
2019-03-11T01:03:51.929Z,79.31
2019-03-11T01:04:51.903Z,80.83
2019-03-11T01:05:51.893Z,83.39
2019-03-11T01:06:51.876Z,81.54
2019-03-11T01:07:51.864Z,78.93
2019-03-11T01:08:51.849Z,77.89
2019-03-11T01:09:51.837Z,77.70
2019-03-11T01:10:51.825Z,75.99
2019-03-11T01:11:51.811Z,76.56
2019-03-11T01:12:51.799Z,76.93
2019-03-11T01:13:51.784Z,77.89
2019-03-11T01:14:51.773Z,76.27
2019-03-11T01:15:51.762Z,76.46
2019-03-11T01:16:51.743Z,75.51
2019-03-11T01:17:51.733Z,75.23
2019-03-11T01:18:51.735Z,77.03
2019-03-11T01:19:51.706Z,77.03
2019-03-11T01:20:51.690Z,80.55
2019-03-11T01:21:51.678Z,82.49
2019-03-11T01:22:51.667Z,80.49
2019-03-11T01:23:51.649Z,76.31
2019-03-11T01:24:51.637Z,73.23
2019-03-11T01:25:51.625Z,75.17
2019-03-11T01:26:51.612Z,73.42
2019-03-11T01:27:51.597Z,72.95
2019-03-11T01:28:51.584Z,75.51
2019-03-11T01:29:51.570Z,78.45
2019-03-11T01:30:51.560Z,75.99
2019-03-11T01:31:51.544Z,74.94
2019-03-11T01:32:51.532Z,76.93
2019-03-11T01:33:51.518Z,76.93
2019-03-11T01:34:51.503Z,76.75
2019-03-11T01:35:51.489Z,75.51
2019-03-11T01:36:51.487Z,75.04
2019-03-11T01:37:51.462Z,74.56
2019-03-11T01:38:51.450Z,75.79
2019-03-11T01:39:51.438Z,76.27
2019-03-11T01:40:51.422Z,75.60
2019-03-11T01:41:51.408Z,76.75
2019-03-11T01:42:51.925Z,78.45
2019-03-11T01:43:51.388Z,79.12
2019-03-11T01:44:51.369Z,78.55
2019-03-11T01:45:51.358Z,76.27
2019-03-11T01:46:51.344Z,76.56
2019-03-11T01:47:51.330Z,78.93
2019-03-11T01:48:51.315Z,77.89
2019-03-11T01:49:51.306Z,77.94
2019-03-11T01:50:51.290Z,78.64
2019-03-11T01:51:51.276Z,80.74
2019-03-11T01:52:51.281Z,79.79
2019-03-11T01:53:51.248Z,81.49
2019-03-11T01:54:51.235Z,78.64
2019-03-11T01:55:51.221Z,77.79
2019-03-11T01:56:51.212Z,77.89
2019-03-11T01:57:51.196Z,77.98
2019-03-11T01:58:51.182Z,81.40
2019-03-11T01:59:51.168Z,80.22
2019-03-11T02:00:51.153Z,78.89
2019-03-11T02:01:51.141Z,79.46
2019-03-11T02:02:51.126Z,79.27
2019-03-11T02:03:51.115Z,80.41
2019-03-11T02:04:51.099Z,81.26
2019-03-11T02:05:51.086Z,80.22
2019-03-11T02:06:51.075Z,84.01
2019-03-11T02:07:51.060Z,83.30
2019-03-11T02:08:51.045Z,79.36
2019-03-11T02:09:51.032Z,81.30
2019-03-11T02:10:51.020Z,79.65
2019-03-11T02:11:51.004Z,79.84
2019-03-11T02:12:50.992Z,80.69
2019-03-11T02:13:50.979Z,80.69
2019-03-11T02:14:50.964Z,81.65
2019-03-11T02:15:50.950Z,83.64
2019-03-11T02:16:50.939Z,82.59
2019-03-11T02:17:50.926Z,82.12
2019-03-11T02:18:50.911Z,82.88
2019-03-11T02:19:50.895Z,83.64
2019-03-11T02:20:50.889Z,82.59
2019-03-11T02:21:50.870Z,82.50
2019-03-11T02:22:50.857Z,81.84
2019-03-11T02:23:50.840Z,82.12
2019-03-11T02:24:50.832Z,82.69
2019-03-11T02:25:50.815Z,82.03
2019-03-11T02:26:50.800Z,82.84
2019-03-11T02:27:50.789Z,83.36
2019-03-11T02:28:50.771Z,82.03
2019-03-11T02:29:50.757Z,82.03
2019-03-11T02:30:50.748Z,82.08
2019-03-11T02:31:50.731Z,82.27
2019-03-11T02:32:50.725Z,82.17
2019-03-11T02:33:50.704Z,82.84
2019-03-11T02:34:50.691Z,84.55
2019-03-11T02:35:50.680Z,83.22
2019-03-11T02:36:50.662Z,83.88
2019-03-11T02:37:50.656Z,84.92
2019-03-11T02:38:50.650Z,84.64
2019-03-11T02:39:50.622Z,84.55
2019-03-11T02:40:50.608Z,84.55
2019-03-11T02:41:50.597Z,84.64
2019-03-11T02:42:50.588Z,84.17
2019-03-11T02:43:50.571Z,83.03
2019-03-11T02:44:50.556Z,83.03
2019-03-11T02:45:50.558Z,82.84
2019-03-11T02:46:50.524Z,83.40
2019-03-11T02:47:50.510Z,84.55
2019-03-11T02:48:50.495Z,82.27
2019-03-11T02:49:50.482Z,81.41
2019-03-11T02:50:50.467Z,81.13
2019-03-11T02:51:50.453Z,82.55
2019-03-11T02:52:50.443Z,82.55
2019-03-11T02:53:50.426Z,81.98
2019-03-11T02:54:50.413Z,82.17
2019-03-11T02:55:51.192Z,82.65
2019-03-11T02:56:50.387Z,82.36
2019-03-11T02:57:50.371Z,82.93
2019-03-11T02:58:50.357Z,83.45
2019-03-11T02:59:50.344Z,82.88
2019-03-11T03:00:50.346Z,81.55
2019-03-11T03:01:50.316Z,84.01
2019-03-11T03:02:50.318Z,84.11
2019-03-11T03:03:50.291Z,80.88
2019-03-11T03:04:50.294Z,80.03
2019-03-11T03:05:50.262Z,79.94
2019-03-11T03:06:50.246Z,78.70
2019-03-11T03:07:50.238Z,78.80
2019-03-11T03:08:50.218Z,80.03
2019-03-11T03:09:50.216Z,82.69
2019-03-11T03:10:50.191Z,79.94
2019-03-11T03:11:50.177Z,78.42
2019-03-11T03:12:50.163Z,78.42
2019-03-11T03:13:50.151Z,78.51
2019-03-11T03:14:50.133Z,78.99
2019-03-11T03:15:50.120Z,78.51
2019-03-11T03:16:50.109Z,79.55
2019-03-11T03:17:50.093Z,79.36
2019-03-11T03:18:50.079Z,79.55
2019-03-11T03:19:50.064Z,79.55
2019-03-11T03:20:50.052Z,78.80
2019-03-11T03:21:50.039Z,79.55
2019-03-11T03:22:50.031Z,79.27
2019-03-11T03:23:50.008Z,78.70
2019-03-11T03:24:50.003Z,78.61
2019-03-11T03:25:49.984Z,78.51
2019-03-11T03:26:49.989Z,77.37
2019-03-11T03:27:50.151Z,78.13
2019-03-11T03:28:49.941Z,78.13
2019-03-11T03:29:49.929Z,77.56
2019-03-11T03:30:49.943Z,80.03
2019-03-11T03:31:49.987Z,78.99
2019-03-11T03:32:49.938Z,80.41
2019-03-11T03:33:49.889Z,82.64
2019-03-11T03:34:49.864Z,80.07
2019-03-11T03:35:49.844Z,79.41
2019-03-11T03:36:49.850Z,81.12
2019-03-11T03:37:49.817Z,79.88
2019-03-11T03:38:49.802Z,78.55
2019-03-11T03:39:49.789Z,77.98
2019-03-11T03:40:49.776Z,79.69
2019-03-11T03:41:49.759Z,79.97
2019-03-11T03:42:49.833Z,79.79
2019-03-11T03:43:49.733Z,81.68
2019-03-11T03:44:49.720Z,78.36
2019-03-11T03:45:49.705Z,79.88
2019-03-11T03:46:49.694Z,79.12
2019-03-11T03:47:49.679Z,78.17
2019-03-11T03:48:49.997Z,76.84
2019-03-11T03:49:49.655Z,76.93
2019-03-11T03:50:49.682Z,77.22
2019-03-11T03:51:49.626Z,77.03
2019-03-11T03:52:49.625Z,81.49
2019-03-11T03:53:49.621Z,79.03
2019-03-11T03:54:49.588Z,81.12
2019-03-11T03:55:49.577Z,81.12
2019-03-11T03:56:49.561Z,78.74
2019-03-11T03:57:49.543Z,78.74
2019-03-11T03:58:49.553Z,82.26
2019-03-11T03:59:49.515Z,82.73
2019-03-11T04:00:49.503Z,81.12
2019-03-11T04:01:49.486Z,78.93
2019-03-11T04:02:49.481Z,77.31
2019-03-11T04:03:49.458Z,79.44
2019-03-11T04:04:49.448Z,78.17
2019-03-11T04:05:49.441Z,76.84
2019-03-11T04:06:49.421Z,79.50
2019-03-11T04:07:49.405Z,79.12
2019-03-11T04:08:49.402Z,78.36
2019-03-11T04:09:49.382Z,79.41
2019-03-11T04:10:49.365Z,77.22
2019-03-11T04:11:49.352Z,81.02
2019-03-11T04:12:49.342Z,79.41
2019-03-11T04:13:49.322Z,78.08
2019-03-11T04:14:49.311Z,77.70
2019-03-11T04:15:49.294Z,77.31
2019-03-11T04:16:49.285Z,80.45
2019-03-11T04:17:49.269Z,82.96
2019-03-11T04:18:49.263Z,78.78
2019-03-11T04:19:49.285Z,78.97
2019-03-11T04:20:49.232Z,76.31
2019-03-11T04:21:49.220Z,76.84
2019-03-11T04:22:49.209Z,79.63
2019-03-11T04:23:49.187Z,79.41
2019-03-11T04:24:49.173Z,79.22
2019-03-11T04:25:49.157Z,78.83
2019-03-11T04:26:49.146Z,77.92
2019-03-11T04:27:49.145Z,79.83
2019-03-11T04:28:49.119Z,77.07
2019-03-11T04:29:49.106Z,77.98
2019-03-11T04:30:49.089Z,78.69
2019-03-11T04:31:49.078Z,77.98
2019-03-11T04:32:49.069Z,77.60
2019-03-11T04:33:49.049Z,78.93
2019-03-11T04:34:49.037Z,76.46
2019-03-11T04:35:49.022Z,77.12
2019-03-11T04:36:49.010Z,80.16
2019-03-11T04:37:48.994Z,79.44
2019-03-11T04:38:48.982Z,82.20
2019-03-11T04:39:48.966Z,82.01
2019-03-11T04:40:48.956Z,82.39
2019-03-11T04:41:48.939Z,77.55
2019-03-11T04:42:48.933Z,74.88
2019-03-11T04:43:48.914Z,78.97
2019-03-11T04:44:48.899Z,77.55
2019-03-11T04:45:48.886Z,75.64
2019-03-11T04:46:48.872Z,78.40
2019-03-11T04:47:48.869Z,74.51
2019-03-11T04:48:48.843Z,79.49
2019-03-11T04:49:48.830Z,75.45
2019-03-11T04:50:48.818Z,74.31
2019-03-11T04:51:48.805Z,76.21
2019-03-11T04:52:48.799Z,77.45
2019-03-11T04:53:48.778Z,77.92
2019-03-11T04:54:48.764Z,80.11
2019-03-11T04:55:48.750Z,78.21
2019-03-11T04:56:48.736Z,78.82
2019-03-11T04:57:48.722Z,80.15
2019-03-11T04:58:48.709Z,81.10
2019-03-11T04:59:48.775Z,78.34
2019-03-11T05:00:48.686Z,76.63
2019-03-11T05:01:48.671Z,75.68
2019-03-11T05:02:48.656Z,77.39
2019-03-11T05:03:48.642Z,76.54
2019-03-11T05:04:48.630Z,77.58
2019-03-11T05:05:48.616Z,80.15
2019-03-11T05:06:48.603Z,79.11
2019-03-11T05:07:48.590Z,79.30
2019-03-11T05:08:48.577Z,78.25
2019-03-11T05:09:48.563Z,77.77
2019-03-11T05:10:48.551Z,78.44
2019-03-11T05:11:48.535Z,77.58
2019-03-11T05:12:48.524Z,77.58
2019-03-11T05:13:48.507Z,78.72
2019-03-11T05:14:48.496Z,80.15
2019-03-11T05:15:48.482Z,78.82
2019-03-11T05:16:48.468Z,80.15
2019-03-11T05:17:48.940Z,74.73
2019-03-11T05:18:48.448Z,74.26
2019-03-11T05:19:48.431Z,76.16
2019-03-11T05:20:48.414Z,76.44
2019-03-11T05:21:48.403Z,78.44
2019-03-11T05:22:48.389Z,76.54
2019-03-11T05:23:48.376Z,76.50
2019-03-11T05:24:48.362Z,76.12
2019-03-11T05:25:48.349Z,79.39
2019-03-11T05:26:48.335Z,77.17
2019-03-11T05:27:48.321Z,77.87
2019-03-11T05:28:49.344Z,75.45
2019-03-11T05:29:48.294Z,78.06
2019-03-11T05:30:48.283Z,78.25
2019-03-11T05:31:48.269Z,76.06
2019-03-11T05:32:48.255Z,74.79
2019-03-11T05:33:48.245Z,77.49
2019-03-11T05:34:48.229Z,74.98
2019-03-11T05:35:48.217Z,74.07
2019-03-11T05:36:48.204Z,75.87
2019-03-11T05:37:48.193Z,75.96
2019-03-11T05:38:48.184Z,77.17
2019-03-11T05:39:48.162Z,76.92
2019-03-11T05:40:48.150Z,79.01
2019-03-11T05:41:48.138Z,77.68
2019-03-11T05:42:48.125Z,77.01
2019-03-11T05:43:48.109Z,75.49
2019-03-11T05:44:48.097Z,76.16
2019-03-11T05:45:48.082Z,74.79
2019-03-11T05:46:48.072Z,75.45
2019-03-11T05:47:48.062Z,75.36
2019-03-11T05:48:48.045Z,77.83
2019-03-11T05:49:48.032Z,77.55
2019-03-11T05:50:48.022Z,78.50
2019-03-11T05:51:48.004Z,77.26
2019-03-11T05:52:48.006Z,74.79
2019-03-11T05:53:47.980Z,75.84
2019-03-11T05:54:47.967Z,77.36
2019-03-11T05:55:48.009Z,78.59
2019-03-11T05:56:47.941Z,77.17
2019-03-11T05:57:47.930Z,78.53
2019-03-11T05:58:47.913Z,78.72
2019-03-11T05:59:47.898Z,75.68
2019-03-11T06:00:47.886Z,75.21
2019-03-11T06:01:47.872Z,78.25
2019-03-11T06:02:47.860Z,78.91
2019-03-11T06:03:47.848Z,74.73
2019-03-11T06:04:47.833Z,74.35
2019-03-11T06:05:47.820Z,74.07
2019-03-11T06:06:47.807Z,74.88
2019-03-11T06:07:47.793Z,78.11
2019-03-11T06:08:47.782Z,77.87
2019-03-11T06:09:47.769Z,76.92
2019-03-11T06:10:47.753Z,79.49
2019-03-11T06:11:47.741Z,79.01
2019-03-11T06:12:47.727Z,76.82
2019-03-11T06:13:47.714Z,78.34
2019-03-11T06:14:47.700Z,81.86
2019-03-11T06:15:47.686Z,78.53
2019-03-11T06:16:47.673Z,78.06
2019-03-11T06:17:47.724Z,79.68
2019-03-11T06:18:47.650Z,80.15
2019-03-11T06:19:47.633Z,78.53
2019-03-11T06:20:47.619Z,78.34
2019-03-11T06:21:47.609Z,78.63
2019-03-11T06:22:47.594Z,79.20
2019-03-11T06:23:47.579Z,79.68
2019-03-11T06:24:47.568Z,80.24
2019-03-11T06:25:47.564Z,80.82
2019-03-11T06:26:47.545Z,77.97
2019-03-11T06:27:47.526Z,78.34
2019-03-11T06:28:47.514Z,78.11
2019-03-11T06:29:47.502Z,81.10
2019-03-11T06:30:47.488Z,80.21
2019-03-11T06:31:47.475Z,79.25
2019-03-11T06:32:47.461Z,79.25
2019-03-11T06:33:47.451Z,82.39
2019-03-11T06:34:47.438Z,84.77
2019-03-11T06:35:47.425Z,83.39
2019-03-11T06:36:47.411Z,82.34
2019-03-11T06:37:47.398Z,83.39
2019-03-11T06:38:47.385Z,84.14
2019-03-11T06:39:47.374Z,78.63
2019-03-11T06:40:47.363Z,78.91
2019-03-11T06:41:47.346Z,81.10
2019-03-11T06:42:47.333Z,80.34
2019-03-11T06:43:47.321Z,82.01
2019-03-11T06:44:47.307Z,83.34
2019-03-11T06:45:47.293Z,86.19
2019-03-11T06:46:47.281Z,86.43
2019-03-11T06:47:47.269Z,85.10
2019-03-11T06:48:47.254Z,83.00
2019-03-11T06:49:47.239Z,84.33
2019-03-11T06:50:47.228Z,85.66
2019-03-11T06:51:47.214Z,85.91
2019-03-11T06:52:47.203Z,88.80
2019-03-11T06:53:47.188Z,84.72
2019-03-11T06:54:47.174Z,84.14
2019-03-11T06:55:47.164Z,83.34
2019-03-11T06:56:47.149Z,84.43
2019-03-11T06:57:47.135Z,84.86
2019-03-11T06:58:47.181Z,88.90
2019-03-11T06:59:47.108Z,86.61
2019-03-11T07:00:47.095Z,84.33
2019-03-11T07:01:47.081Z,84.43
2019-03-11T07:02:47.073Z,83.76
2019-03-11T07:03:47.055Z,84.81
2019-03-11T07:04:47.105Z,85.00
2019-03-11T07:05:47.027Z,84.05
2019-03-11T07:06:47.013Z,83.39
2019-03-11T07:07:46.997Z,84.24
2019-03-11T07:08:46.987Z,87.28
2019-03-11T07:09:46.978Z,88.42
2019-03-11T07:10:46.967Z,84.52
2019-03-11T07:11:46.945Z,86.33
2019-03-11T07:12:46.942Z,84.91
2019-03-11T07:13:46.921Z,84.52
2019-03-11T07:14:46.907Z,85.76
2019-03-11T07:15:46.892Z,90.33
2019-03-11T07:16:46.882Z,87.85
2019-03-11T07:17:46.869Z,89.94
2019-03-11T07:18:46.857Z,90.52
2019-03-11T07:19:46.841Z,89.28
2019-03-11T07:20:46.845Z,88.90
2019-03-11T07:21:46.818Z,88.71
2019-03-11T07:22:46.799Z,90.23
2019-03-11T07:23:46.788Z,92.61
2019-03-11T07:24:46.771Z,92.99
2019-03-11T07:25:46.759Z,94.51
2019-03-11T07:26:46.745Z,93.08
2019-03-11T07:27:46.733Z,93.65
2019-03-11T07:28:46.718Z,93.65
2019-03-11T07:29:46.709Z,94.18
2019-03-11T07:30:46.694Z,93.79
2019-03-11T07:31:46.681Z,92.75
2019-03-11T07:32:46.667Z,91.71
2019-03-11T07:33:46.658Z,93.79
2019-03-11T07:34:46.642Z,96.08
2019-03-11T07:35:46.628Z,95.22
2019-03-11T07:36:46.616Z,93.70
2019-03-11T07:37:46.604Z,92.08
2019-03-11T07:38:46.591Z,90.56
2019-03-11T07:39:46.577Z,91.08
2019-03-11T07:40:46.564Z,92.80
2019-03-11T07:41:46.551Z,91.18
2019-03-11T07:42:46.535Z,92.13
2019-03-11T07:43:46.523Z,90.52
2019-03-11T07:44:46.508Z,89.28
2019-03-11T07:45:46.497Z,88.04
2019-03-11T07:46:46.484Z,89.00
2019-03-11T07:47:46.519Z,87.66
2019-03-11T07:48:46.457Z,88.80
2019-03-11T07:49:46.443Z,86.52
2019-03-11T07:50:46.430Z,86.14
2019-03-11T07:51:46.416Z,85.47
2019-03-11T07:52:46.405Z,86.14
2019-03-11T07:53:46.392Z,86.66
2019-03-11T07:54:46.378Z,85.24
2019-03-11T07:55:46.368Z,86.57
2019-03-11T07:56:46.351Z,84.00
2019-03-11T07:57:46.338Z,83.81
2019-03-11T07:58:46.327Z,81.43
2019-03-11T07:59:46.312Z,81.52
2019-03-11T08:00:53.762Z,81.29
2019-03-11T08:01:46.286Z,82.24
2019-03-11T08:02:46.274Z,80.63
2019-03-11T08:03:46.261Z,83.00
2019-03-11T08:04:46.247Z,81.77
2019-03-11T08:05:46.240Z,80.15
2019-03-11T08:06:46.226Z,83.10
2019-03-11T08:07:46.212Z,81.01
2019-03-11T08:08:46.196Z,84.62
2019-03-11T08:09:46.186Z,82.81
2019-03-11T08:10:46.176Z,83.29
2019-03-11T08:11:46.157Z,79.81
2019-03-11T08:12:46.148Z,81.48
2019-03-11T08:13:46.132Z,79.20
2019-03-11T08:14:46.121Z,80.44
2019-03-11T08:15:46.105Z,79.77
2019-03-11T08:16:46.093Z,79.49
2019-03-11T08:17:46.079Z,82.53
2019-03-11T08:18:46.068Z,82.24
2019-03-11T08:19:46.055Z,81.86
2019-03-11T08:20:46.043Z,81.77
2019-03-11T08:21:46.027Z,82.91
2019-03-11T08:22:46.023Z,80.68
2019-03-11T08:23:46.005Z,80.68
2019-03-11T08:24:45.989Z,81.63
2019-03-11T08:25:45.975Z,82.77
2019-03-11T08:26:45.965Z,79.35
2019-03-11T08:27:45.949Z,79.44
2019-03-11T08:28:45.937Z,83.59
2019-03-11T08:29:45.925Z,88.57
2019-03-11T08:30:45.909Z,90.95
2019-03-11T08:31:45.895Z,92.47
2019-03-11T08:32:45.880Z,92.71
2019-03-11T08:33:45.877Z,94.84
2019-03-11T08:34:45.852Z,96.45
2019-03-11T08:35:45.840Z,95.51
2019-03-11T08:36:45.826Z,94.46
2019-03-11T08:37:45.812Z,93.13
2019-03-11T08:38:45.799Z,93.37
2019-03-11T08:39:45.783Z,93.46
2019-03-11T08:40:45.767Z,93.94
2019-03-11T08:41:45.757Z,94.13
2019-03-11T08:42:45.739Z,95.22
2019-03-11T08:43:45.726Z,96.45
2019-03-11T08:44:45.712Z,97.45
2019-03-11T08:45:45.699Z,96.22
2019-03-11T08:46:45.685Z,97.17
2019-03-11T08:47:45.667Z,96.59
2019-03-11T08:48:45.652Z,97.17
2019-03-11T08:49:45.639Z,97.64
2019-03-11T08:50:45.625Z,99.99
2019-03-11T08:51:45.607Z,95.46
2019-03-11T08:52:45.603Z,98.45
2019-03-11T08:53:45.580Z,99.77
2019-03-11T08:54:45.563Z,98.35
2019-03-11T08:55:45.549Z,93.80
2019-03-11T08:56:45.535Z,92.47
2019-03-11T08:57:45.520Z,92.94
2019-03-11T08:58:45.507Z,97.88
2019-03-11T08:59:45.495Z,96.55
2019-03-11T09:00:45.475Z,95.60
2019-03-11T09:01:45.460Z,95.51
2019-03-11T09:02:45.449Z,96.88
2019-03-11T09:03:47.823Z,97.27
2019-03-11T09:04:45.419Z,96.08
2019-03-11T09:05:45.406Z,97.12
2019-03-11T09:06:45.390Z,98.21
2019-03-11T09:07:45.374Z,99.99
2019-03-11T09:08:45.361Z,99.99
2019-03-11T09:09:45.348Z,99.40
2019-03-11T09:10:45.331Z,98.83
2019-03-11T09:11:45.317Z,98.92
2019-03-11T09:12:45.304Z,99.97
2019-03-11T09:13:45.293Z,99.99
2019-03-11T09:14:45.292Z,99.30
2019-03-11T09:15:45.259Z,98.16
2019-03-11T09:16:45.247Z,99.99
2019-03-11T09:17:45.235Z,98.64
2019-03-11T09:18:45.215Z,99.99
2019-03-11T09:19:45.203Z,99.99
2019-03-11T09:20:45.188Z,99.99
2019-03-11T09:21:45.172Z,98.02
2019-03-11T09:22:45.162Z,96.08
2019-03-11T09:23:45.146Z,96.41
2019-03-11T09:24:45.128Z,97.03
2019-03-11T09:25:45.118Z,93.18
2019-03-11T09:26:45.103Z,95.55
2019-03-11T09:27:45.088Z,93.89
2019-03-11T09:28:45.075Z,99.99
2019-03-11T09:29:45.060Z,98.02
2019-03-11T09:30:45.044Z,96.03
2019-03-11T09:31:45.031Z,94.27
2019-03-11T09:32:45.019Z,97.02
2019-03-11T09:33:45.001Z,99.99
2019-03-11T09:34:44.988Z,97.02
2019-03-11T09:35:44.975Z,98.54
2019-03-11T09:36:44.959Z,99.21
2019-03-11T09:37:44.945Z,99.99
2019-03-11T09:38:44.933Z,99.87
2019-03-11T09:39:44.982Z,99.99
2019-03-11T09:40:44.903Z,99.99
2019-03-11T09:41:44.890Z,99.99
2019-03-11T09:42:44.876Z,99.99
2019-03-11T09:43:44.862Z,99.97
2019-03-11T09:44:44.849Z,99.99
2019-03-11T09:45:44.832Z,99.99
2019-03-11T09:46:44.821Z,99.99
2019-03-11T09:47:44.804Z,99.99
2019-03-11T09:48:45.034Z,99.99
2019-03-11T09:49:44.774Z,99.99
2019-03-11T09:50:44.761Z,99.99
2019-03-11T09:51:44.746Z,99.54
2019-03-11T09:52:44.751Z,99.99
2019-03-11T09:53:44.716Z,99.99
2019-03-11T09:54:44.708Z,99.99
2019-03-11T09:55:44.694Z,99.50
2019-03-11T09:56:44.674Z,95.27
2019-03-11T09:57:44.667Z,94.60
2019-03-11T09:58:44.652Z,98.40
2019-03-11T09:59:44.632Z,97.17
2019-03-11T10:00:44.628Z,99.54
2019-03-11T10:01:44.616Z,98.69
2019-03-11T10:02:52.542Z,98.26
2019-03-11T10:03:44.577Z,96.69
2019-03-11T10:04:44.564Z,98.07
2019-03-11T10:05:44.550Z,99.99
2019-03-11T10:06:44.541Z,99.07
2019-03-11T10:07:44.558Z,96.41
2019-03-11T10:08:44.509Z,97.08
2019-03-11T10:09:44.496Z,97.41
2019-03-11T10:10:44.482Z,93.41
2019-03-11T10:11:44.470Z,89.80
2019-03-11T10:12:44.557Z,88.66
2019-03-11T10:13:44.441Z,88.18
2019-03-11T10:14:44.428Z,87.99
2019-03-11T10:15:44.415Z,85.71
2019-03-11T10:16:44.403Z,88.37
2019-03-11T10:17:44.390Z,83.29
2019-03-11T10:18:44.375Z,84.66
2019-03-11T10:19:44.364Z,80.66
2019-03-11T10:20:44.352Z,82.57
2019-03-11T10:21:44.336Z,83.42
2019-03-11T10:22:44.324Z,79.33
2019-03-11T10:23:44.311Z,81.05
2019-03-11T10:24:44.301Z,82.28
2019-03-11T10:25:44.288Z,80.95
2019-03-11T10:26:44.276Z,81.52
2019-03-11T10:27:44.263Z,76.06
2019-03-11T10:28:44.253Z,78.30
2019-03-11T10:29:44.233Z,79.44
2019-03-11T10:30:44.223Z,82.49
2019-03-11T10:31:44.235Z,80.96
2019-03-11T10:32:44.195Z,82.64
2019-03-11T10:33:44.186Z,84.91
2019-03-11T10:34:44.170Z,88.81
2019-03-11T10:35:44.156Z,88.20
2019-03-11T10:36:44.144Z,89.48
2019-03-11T10:37:44.130Z,90.24
2019-03-11T10:38:44.114Z,93.75
2019-03-11T10:39:44.100Z,93.99
2019-03-11T10:40:44.088Z,91.52
2019-03-11T10:41:44.075Z,92.66
2019-03-11T10:42:44.061Z,92.09
2019-03-11T10:43:44.047Z,92.28
2019-03-11T10:44:44.033Z,93.23
2019-03-11T10:45:44.018Z,94.84
2019-03-11T10:46:45.101Z,96.55
2019-03-11T10:47:43.988Z,94.56
2019-03-11T10:48:43.977Z,95.51
2019-03-11T10:49:43.960Z,98.26
2019-03-11T10:50:43.988Z,98.40
2019-03-11T10:51:43.945Z,96.22
2019-03-11T10:52:43.922Z,91.47
2019-03-11T10:53:43.904Z,90.85
2019-03-11T10:54:43.895Z,95.70
2019-03-11T10:55:43.877Z,91.52
2019-03-11T10:56:43.862Z,91.61
2019-03-11T10:57:43.846Z,89.56
2019-03-11T10:58:43.834Z,85.95
2019-03-11T10:59:43.882Z,83.00
2019-03-11T11:00:43.826Z,84.14
2019-03-11T11:01:43.791Z,81.58
2019-03-11T11:02:43.779Z,80.34
2019-03-11T11:03:43.764Z,78.44
2019-03-11T11:04:43.749Z,82.71
2019-03-11T11:05:43.738Z,79.77
2019-03-11T11:06:43.726Z,80.72
2019-03-11T11:07:43.713Z,79.20
2019-03-11T11:08:43.697Z,80.05
2019-03-11T11:09:43.684Z,80.53
2019-03-11T11:10:43.670Z,79.86
2019-03-11T11:11:43.655Z,80.49
2019-03-11T11:12:43.642Z,85.24
2019-03-11T11:13:43.630Z,87.29
2019-03-11T11:14:43.616Z,87.76
2019-03-11T11:15:43.602Z,93.75
2019-03-11T11:16:43.589Z,93.89
2019-03-11T11:17:43.573Z,98.40
2019-03-11T11:18:43.572Z,94.93
2019-03-11T11:19:43.545Z,94.27
2019-03-11T11:20:43.531Z,97.36
2019-03-11T11:21:43.517Z,99.99
2019-03-11T11:22:43.504Z,99.99
2019-03-11T11:23:43.489Z,99.99
2019-03-11T11:24:43.478Z,99.99
2019-03-11T11:25:43.459Z,99.99
2019-03-11T11:26:43.447Z,99.99
2019-03-11T11:27:43.433Z,99.99
2019-03-11T11:28:43.418Z,99.99
2019-03-11T11:29:43.403Z,99.99
2019-03-11T11:30:43.387Z,99.99
2019-03-11T11:31:43.372Z,99.99
2019-03-11T11:32:43.355Z,99.99
2019-03-11T11:33:43.346Z,99.99
2019-03-11T11:34:43.327Z,99.99
2019-03-11T11:35:43.310Z,99.99
2019-03-11T11:36:43.298Z,99.99
2019-03-11T11:37:43.283Z,99.99
2019-03-11T11:38:43.267Z,99.99
2019-03-11T11:39:43.250Z,99.99
2019-03-11T11:40:43.237Z,99.99
2019-03-11T11:41:43.221Z,99.99
2019-03-11T11:42:43.206Z,99.99
2019-03-11T11:43:43.196Z,99.99
2019-03-11T11:44:43.170Z,99.99
2019-03-11T11:45:43.153Z,99.99
2019-03-11T11:46:43.138Z,99.99
2019-03-11T11:47:43.118Z,99.99
2019-03-11T11:48:43.102Z,99.99
2019-03-11T11:49:43.087Z,99.99
2019-03-11T11:50:43.070Z,99.99
2019-03-11T11:51:43.053Z,99.99
2019-03-11T11:52:43.038Z,99.99
2019-03-11T11:53:43.020Z,99.99
2019-03-11T11:54:43.006Z,99.99
2019-03-11T11:55:42.986Z,99.99
2019-03-11T11:56:42.971Z,99.99
2019-03-11T11:57:42.954Z,99.99
2019-03-11T11:58:42.938Z,99.99
2019-03-11T11:59:53.185Z,99.99
2019-03-11T12:00:42.908Z,99.99
2019-03-11T12:01:42.888Z,99.99
2019-03-11T12:02:42.875Z,99.99
2019-03-11T12:03:42.855Z,99.99
2019-03-11T12:04:42.840Z,99.99
2019-03-11T12:05:42.822Z,99.99
2019-03-11T12:06:42.808Z,99.99
2019-03-11T12:07:42.789Z,99.99
2019-03-11T12:08:42.775Z,99.99
2019-03-11T12:09:42.761Z,99.99
2019-03-11T12:10:42.744Z,99.99
2019-03-11T12:11:42.729Z,99.99
2019-03-11T12:12:42.718Z,99.99
2019-03-11T12:13:42.709Z,99.99
2019-03-11T12:14:42.683Z,99.99
2019-03-11T12:15:42.666Z,99.99
2019-03-11T12:16:42.651Z,99.99
2019-03-11T12:17:42.681Z,99.99
2019-03-11T12:18:42.618Z,99.99
2019-03-11T12:19:42.604Z,99.99
2019-03-11T12:20:42.590Z,99.99
2019-03-11T12:21:42.576Z,99.99
2019-03-11T12:22:42.900Z,99.99
2019-03-11T12:23:46.555Z,99.99
2019-03-11T12:24:42.528Z,99.99
2019-03-11T12:25:42.512Z,99.99
2019-03-11T12:26:42.497Z,99.99
2019-03-11T12:27:53.138Z,99.99
2019-03-11T12:28:42.468Z,99.99
2019-03-11T12:29:42.454Z,99.99
2019-03-11T12:30:42.440Z,99.99
2019-03-11T12:31:42.423Z,99.99
2019-03-11T12:32:42.425Z,99.99
2019-03-11T12:33:42.392Z,99.99
2019-03-11T12:34:42.380Z,99.99
2019-03-11T12:35:42.367Z,99.99
2019-03-11T12:36:42.350Z,99.99
2019-03-11T12:37:42.338Z,99.99
2019-03-11T12:38:42.324Z,99.99
2019-03-11T12:39:42.309Z,99.99
2019-03-11T12:40:42.293Z,99.99
2019-03-11T12:41:42.281Z,99.99
2019-03-11T12:42:42.265Z,99.99
2019-03-11T12:43:42.248Z,99.99
2019-03-11T12:44:42.232Z,99.99
2019-03-11T12:45:42.218Z,99.99
2019-03-11T12:46:42.206Z,99.99
2019-03-11T12:47:42.239Z,99.99
2019-03-11T12:48:42.176Z,99.99
2019-03-11T12:49:42.161Z,99.99
2019-03-11T12:50:42.153Z,99.99
2019-03-11T12:51:49.874Z,99.99
2019-03-11T12:52:42.116Z,99.99